createdAt,value
2022-12-11T00:03:08.306Z,63.48
2022-12-11T00:08:08.185Z,63.27
2022-12-11T00:13:05.038Z,63.46
2022-12-11T00:18:01.529Z,63.31
2022-12-11T00:22:58.004Z,63.32
2022-12-11T00:27:54.461Z,63.23
2022-12-11T00:32:53.783Z,62.90
2022-12-11T00:37:50.337Z,62.82
2022-12-11T00:42:47.931Z,62.84
2022-12-11T00:47:44.552Z,63.23
2022-12-11T00:52:41.058Z,63.15
2022-12-11T00:57:37.580Z,62.97
2022-12-11T01:02:34.697Z,63.16
2022-12-11T01:07:31.167Z,63.40
2022-12-11T01:12:28.664Z,63.19
2022-12-11T01:17:25.329Z,63.13
2022-12-11T01:22:23.909Z,63.40
2022-12-11T01:27:20.428Z,63.07
2022-12-11T01:32:17.077Z,62.82
2022-12-11T01:37:13.553Z,62.85
2022-12-11T01:42:18.515Z,62.72
2022-12-11T01:47:14.993Z,62.90
2022-12-11T01:52:15.497Z,62.89
2022-12-11T01:57:12.735Z,62.90
2022-12-11T02:02:15.452Z,62.90
2022-12-11T02:07:11.987Z,62.80
2022-12-11T02:12:37.057Z,62.68
2022-12-11T02:17:52.701Z,62.79
2022-12-11T02:23:31.448Z,62.81
2022-12-11T02:28:35.151Z,63.03
2022-12-11T02:33:38.866Z,63.44
2022-12-11T02:38:39.014Z,63.20
2022-12-11T02:43:36.889Z,63.20
2022-12-11T02:48:33.891Z,63.56
2022-12-11T02:53:32.358Z,63.44
2022-12-11T02:58:31.884Z,63.58
2022-12-11T03:03:29.528Z,63.23
2022-12-11T03:08:26.188Z,63.47
2022-12-11T03:13:24.812Z,63.61
2022-12-11T03:18:40.179Z,63.67
2022-12-11T03:24:02.792Z,63.97
2022-12-11T03:29:18.305Z,63.51
2022-12-11T03:34:29.179Z,63.86
2022-12-11T03:39:39.239Z,63.71
2022-12-11T03:44:37.247Z,63.98
2022-12-11T03:49:37.094Z,64.03
2022-12-11T03:54:34.643Z,63.87
2022-12-11T03:59:31.217Z,63.90
2022-12-11T04:04:27.734Z,64.29
2022-12-11T04:09:24.301Z,64.12
2022-12-11T04:14:39.258Z,63.99
2022-12-11T04:19:54.346Z,64.01
2022-12-11T04:24:51.010Z,63.98
2022-12-11T04:29:47.487Z,64.35
2022-12-11T04:34:43.946Z,64.28
2022-12-11T04:39:40.338Z,64.56
2022-12-11T04:44:36.783Z,64.68
2022-12-11T04:49:33.249Z,64.56
2022-12-11T04:54:33.030Z,64.20
2022-12-11T04:59:30.124Z,64.51
2022-12-11T05:04:26.532Z,64.30
2022-12-11T05:09:23.295Z,64.26
2022-12-11T05:14:19.950Z,64.24
2022-12-11T05:19:16.399Z,64.40
2022-12-11T05:24:12.834Z,64.60
2022-12-11T05:29:09.383Z,64.38
2022-12-11T05:34:05.879Z,64.55
2022-12-11T05:39:03.587Z,64.63
2022-12-11T05:44:00.192Z,64.04
2022-12-11T05:48:59.661Z,64.17
2022-12-11T05:53:56.887Z,63.97
2022-12-11T05:58:57.170Z,63.68
2022-12-11T06:03:54.435Z,63.44
2022-12-11T06:08:55.086Z,63.30
2022-12-11T06:13:52.209Z,63.42
2022-12-11T06:18:48.818Z,63.30
2022-12-11T06:23:46.872Z,63.23
2022-12-11T06:28:43.565Z,63.32
2022-12-11T06:33:40.282Z,63.38
2022-12-11T06:38:37.319Z,63.19
2022-12-11T06:43:35.074Z,63.14
2022-12-11T06:48:31.852Z,62.96
2022-12-11T06:53:29.138Z,63.46
2022-12-11T06:58:25.653Z,63.30
2022-12-11T07:03:22.126Z,63.15
2022-12-11T07:08:18.703Z,63.34
2022-12-11T07:13:15.279Z,63.51
2022-12-11T07:18:11.811Z,63.40
2022-12-11T07:23:08.278Z,63.32
2022-12-11T07:28:04.820Z,63.44
2022-12-11T07:33:01.325Z,63.34
2022-12-11T07:37:59.553Z,63.63
2022-12-11T07:42:56.114Z,63.71
2022-12-11T07:47:58.993Z,63.85
2022-12-11T07:53:03.565Z,63.86
2022-12-11T07:58:00.068Z,64.05
2022-12-11T08:02:57.693Z,64.15
2022-12-11T08:07:54.325Z,63.91
2022-12-11T08:12:51.109Z,64.00
2022-12-11T08:17:47.556Z,64.12
2022-12-11T08:22:43.983Z,64.32
2022-12-11T08:27:40.404Z,64.12
2022-12-11T08:32:37.086Z,64.16
2022-12-11T08:37:36.334Z,64.35
2022-12-11T08:42:32.837Z,64.54
2022-12-11T08:47:30.238Z,64.42
2022-12-11T08:52:26.687Z,64.51
2022-12-11T08:57:25.261Z,64.56
2022-12-11T09:02:21.810Z,64.61
2022-12-11T09:07:18.327Z,64.74
2022-12-11T09:12:14.803Z,64.76
2022-12-11T09:17:11.289Z,64.67
2022-12-11T09:22:09.926Z,64.90
2022-12-11T09:27:06.471Z,64.68
2022-12-11T09:32:02.931Z,64.61
2022-12-11T09:36:59.500Z,64.82
2022-12-11T09:42:05.145Z,64.82
2022-12-11T09:47:01.815Z,64.81
2022-12-11T09:52:13.606Z,64.72
2022-12-11T09:57:26.830Z,64.89
2022-12-11T10:02:27.558Z,65.09
2022-12-11T10:07:41.038Z,64.60
2022-12-11T10:12:48.546Z,64.94
2022-12-11T10:17:45.890Z,64.66
2022-12-11T10:22:42.601Z,64.96
2022-12-11T10:27:40.063Z,64.56
2022-12-11T10:32:47.178Z,64.47
2022-12-11T10:37:43.648Z,64.55
2022-12-11T10:42:45.576Z,64.79
2022-12-11T10:47:42.275Z,64.24
2022-12-11T10:52:44.624Z,64.46
2022-12-11T10:57:41.077Z,64.37
2022-12-11T11:02:38.663Z,64.60
2022-12-11T11:07:35.229Z,64.57
2022-12-11T11:12:41.355Z,64.47
2022-12-11T11:17:55.715Z,64.42
2022-12-11T11:22:55.735Z,64.31
2022-12-11T11:27:57.470Z,64.31
2022-12-11T11:33:00.703Z,63.95
2022-12-11T11:38:10.135Z,63.70
2022-12-11T11:43:30.767Z,63.72
2022-12-11T11:48:48.307Z,63.85
2022-12-11T11:53:48.552Z,63.64
2022-12-11T11:58:56.187Z,63.75
2022-12-11T12:03:52.868Z,63.86
2022-12-11T12:09:36.870Z,63.68
2022-12-11T12:15:12.488Z,63.46
2022-12-11T12:20:27.706Z,64.06
2022-12-11T12:25:49.235Z,63.83
2022-12-11T12:30:48.465Z,63.60
2022-12-11T12:35:54.191Z,63.79
2022-12-11T12:40:55.671Z,63.45
2022-12-11T12:46:24.965Z,63.75
2022-12-11T12:51:21.556Z,63.74
2022-12-11T12:56:18.166Z,64.05
2022-12-11T13:01:21.615Z,63.82
2022-12-11T13:06:38.659Z,63.81
2022-12-11T13:11:36.351Z,63.73
2022-12-11T13:16:41.318Z,63.74
2022-12-11T13:21:40.975Z,63.63
2022-12-11T13:26:37.589Z,63.53
2022-12-11T13:31:38.598Z,63.61
2022-12-11T13:42:03.083Z,63.22
2022-12-11T13:47:14.669Z,63.34
2022-12-11T14:50:06.780Z,62.95
2022-12-11T15:02:05.147Z,62.93
2022-12-11T17:51:12.446Z,62.53
